Time;durP1;ratioP1;P1;durP2;ratioP2;P2;SDS_P1;SDS_P2;PMS_P1;PMS_P2;Temp;Humidity;BMP_temperature;BMP_pressure;BME280_temperature;BME280_humidity;BME280_pressure;Samples;Min_cycle;Max_cycle;Signal;HPM_P1;HPM_P2
2022/12/01 00:02:14;;;;;;;9.15;8.02;;;;;;;;;;5120865;28;20217;-69
2022/12/01 00:04:42;;;;;;;8.52;7.72;;;;;;;;;;5120843;28;20282;-69
2022/12/01 00:07:10;;;;;;;8.57;7.65;;;;;;;;;;5120907;28;20203;-68
2022/12/01 00:12:25;;;;;;;8.43;7.57;;;;;;;;;;5120450;28;20212;-68
2022/12/01 00:14:59;;;;;;;7.63;6.93;;;;;;;;;;5120768;28;20305;-67
2022/12/01 00:17:29;;;;;;;8.23;7.43;;;;;;;;;;5137680;27;20281;-67
2022/12/01 00:19:58;;;;;;;7.85;7.03;;;;;;;;;;5140827;27;20222;-66
2022/12/01 00:22:25;;;;;;;7.50;6.90;;;;;;;;;;5140397;27;20333;-66
2022/12/01 00:24:53;;;;;;;7.47;6.78;;;;;;;;;;5140774;27;20565;-66
2022/12/01 00:27:21;;;;;;;7.85;7.05;;;;;;;;;;5140272;27;20251;-66
2022/12/01 00:29:50;;;;;;;7.07;6.45;;;;;;;;;;5140168;27;20207;-66
2022/12/01 00:32:17;;;;;;;7.43;6.72;;;;;;;;;;5140669;27;20213;-66
2022/12/01 00:34:45;;;;;;;7.45;6.75;;;;;;;;;;5139682;27;20283;-66
2022/12/01 00:37:13;;;;;;;7.60;6.90;;;;;;;;;;5140594;27;20217;-66
2022/12/01 00:39:41;;;;;;;7.47;6.78;;;;;;;;;;5140140;27;20473;-66
2022/12/01 00:42:09;;;;;;;7.45;6.68;;;;;;;;;;5140745;27;20213;-66
2022/12/01 00:44:36;;;;;;;7.28;6.57;;;;;;;;;;5140541;27;20297;-66
2022/12/01 00:47:06;;;;;;;7.47;6.78;;;;;;;;;;5140261;27;20297;-66
2022/12/01 00:49:34;;;;;;;7.28;6.57;;;;;;;;;;5140483;27;20209;-66
2022/12/01 00:52:01;;;;;;;8.40;6.70;;;;;;;;;;5140097;27;20702;-66
2022/12/01 00:54:31;;;;;;;7.57;6.80;;;;;;;;;;5139585;27;20253;-66
2022/12/01 00:56:58;;;;;;;6.72;6.13;;;;;;;;;;5139755;27;20582;-67
2022/12/01 00:59:26;;;;;;;7.00;6.40;;;;;;;;;;5139285;27;20593;-67
2022/12/01 01:01:55;;;;;;;7.63;6.30;;;;;;;;;;5139413;27;20220;-67
2022/12/01 01:04:24;;;;;;;7.00;6.40;;;;;;;;;;5140067;27;20206;-67
2022/12/01 01:06:52;;;;;;;7.35;6.65;;;;;;;;;;5139437;27;20230;-67
2022/12/01 01:09:20;;;;;;;7.10;6.20;;;;;;;;;;5140291;27;20623;-68
2022/12/01 01:11:47;;;;;;;6.80;6.20;;;;;;;;;;5139896;27;20202;-67
2022/12/01 01:14:15;;;;;;;6.32;5.72;;;;;;;;;;5139547;27;20202;-67
2022/12/01 01:16:43;;;;;;;6.40;5.80;;;;;;;;;;5139705;27;20207;-66
2022/12/01 01:19:11;;;;;;;6.50;5.90;;;;;;;;;;5139203;27;20449;-66
2022/12/01 01:21:40;;;;;;;6.28;5.68;;;;;;;;;;5139663;27;20217;-66
2022/12/01 01:24:08;;;;;;;6.18;5.57;;;;;;;;;;5140163;27;20226;-66
2022/12/01 01:26:36;;;;;;;5.90;5.40;;;;;;;;;;5139620;27;20202;-68
2022/12/01 01:29:06;;;;;;;6.53;5.80;;;;;;;;;;5139630;27;20203;-66
2022/12/01 01:31:35;;;;;;;6.60;5.97;;;;;;;;;;5139529;27;20264;-66
2022/12/01 01:34:03;;;;;;;6.63;5.90;;;;;;;;;;5139688;27;20202;-66
2022/12/01 01:36:31;;;;;;;12.48;8.90;;;;;;;;;;5139076;27;20262;-67
2022/12/01 01:39:01;;;;;;;10.05;9.02;;;;;;;;;;5139604;27;20301;-67
2022/12/01 01:41:29;;;;;;;9.20;8.35;;;;;;;;;;5139619;27;20246;-66
2022/12/01 01:43:58;;;;;;;11.05;8.60;;;;;;;;;;5139276;27;20548;-66
2022/12/01 01:46:26;;;;;;;8.98;8.18;;;;;;;;;;5137814;27;20217;-66
2022/12/01 01:48:55;;;;;;;8.70;7.90;;;;;;;;;;5125568;27;20199;-66
2022/12/01 01:51:25;;;;;;;8.50;7.70;;;;;;;;;;5137548;27;20277;-67
2022/12/01 01:53:54;;;;;;;8.52;7.72;;;;;;;;;;5138790;27;20202;-66
2022/12/01 01:56:23;;;;;;;8.32;7.53;;;;;;;;;;5138225;27;20226;-66
2022/12/01 01:58:52;;;;;;;8.60;7.78;;;;;;;;;;5138216;27;20194;-67
2022/12/01 02:01:20;;;;;;;8.88;8.02;;;;;;;;;;5138661;27;20249;-67
2022/12/01 02:03:48;;;;;;;8.45;7.35;;;;;;;;;;5138872;27;20611;-67
2022/12/01 02:06:16;;;;;;;8.15;7.35;;;;;;;;;;5138172;27;20202;-66
2022/12/01 02:08:43;;;;;;;7.88;7.18;;;;;;;;;;5138549;27;20202;-66
2022/12/01 02:11:21;;;;;;;7.93;7.13;;;;;;;;;;5138844;27;20202;-66
2022/12/01 02:13:52;;;;;;;7.95;7.22;;;;;;;;;;5138234;27;20221;-67
2022/12/01 02:16:22;;;;;;;7.75;7.05;;;;;;;;;;5138097;27;20276;-66
2022/12/01 02:18:52;;;;;;;7.90;7.20;;;;;;;;;;5138990;27;20206;-67
2022/12/01 02:21:25;;;;;;;7.55;6.85;;;;;;;;;;5138811;27;20202;-67
2022/12/01 02:24:20;;;;;;;7.90;7.20;;;;;;;;;;5138247;27;20234;-67
2022/12/01 02:26:50;;;;;;;7.45;6.65;;;;;;;;;;5133531;27;20199;-66
2022/12/01 02:29:37;;;;;;;7.50;6.80;;;;;;;;;;5117743;28;20203;-68
2022/12/01 02:32:08;;;;;;;7.45;6.75;;;;;;;;;;5108403;28;20301;-67
2022/12/01 02:34:41;;;;;;;7.18;6.55;;;;;;;;;;5118895;28;20194;-66
2022/12/01 02:37:12;;;;;;;7.32;6.63;;;;;;;;;;5118018;28;20206;-66
2022/12/01 02:39:45;;;;;;;7.50;6.80;;;;;;;;;;5117784;28;20263;-68
2022/12/01 02:42:48;;;;;;;6.88;6.28;;;;;;;;;;5117660;28;20207;-66
2022/12/01 02:45:04;;;;;;;6.80;6.20;;;;;;;;;;5124978;28;20218;-66
2022/12/01 02:47:34;;;;;;;7.07;6.47;;;;;;;;;;5138056;28;20245;-66
2022/12/01 02:50:02;;;;;;;6.57;5.97;;;;;;;;;;5138570;28;20206;-67
2022/12/01 02:52:30;;;;;;;6.90;6.30;;;;;;;;;;5138366;28;20201;-67
2022/12/01 02:54:58;;;;;;;7.15;6.47;;;;;;;;;;5131104;28;20215;-67
2022/12/01 02:57:26;;;;;;;6.78;6.18;;;;;;;;;;5120728;28;20203;-66
2022/12/01 02:59:56;;;;;;;7.05;6.45;;;;;;;;;;5121845;28;20209;-66
2022/12/01 03:02:27;;;;;;;6.65;6.05;;;;;;;;;;5121501;28;20566;-66
2022/12/01 03:04:59;;;;;;;6.57;5.97;;;;;;;;;;5127615;27;20285;-66
2022/12/01 03:07:34;;;;;;;6.70;6.10;;;;;;;;;;5142156;27;20600;-67
2022/12/01 03:10:06;;;;;;;6.50;5.90;;;;;;;;;;5142384;27;20202;-67
2022/12/01 03:12:38;;;;;;;6.40;5.90;;;;;;;;;;5142392;27;20240;-67
2022/12/01 03:15:10;;;;;;;6.68;6.07;;;;;;;;;;5134235;27;20670;-67
2022/12/01 03:17:40;;;;;;;6.68;6.07;;;;;;;;;;5121543;28;20203;-67
2022/12/01 03:20:13;;;;;;;6.80;6.20;;;;;;;;;;5121785;28;20297;-67
2022/12/01 03:22:43;;;;;;;6.10;5.60;;;;;;;;;;5121475;28;20314;-67
2022/12/01 03:25:12;;;;;;;6.13;5.63;;;;;;;;;;5121272;28;20211;-67
2022/12/01 03:27:43;;;;;;;5.82;5.32;;;;;;;;;;5121372;28;20202;-67
2022/12/01 03:30:11;;;;;;;6.43;5.85;;;;;;;;;;5121407;28;20210;-67
2022/12/01 03:32:42;;;;;;;6.03;5.53;;;;;;;;;;5121386;28;20214;-67
2022/12/01 03:35:15;;;;;;;6.10;5.50;;;;;;;;;;5120448;28;20287;-67
2022/12/01 03:37:46;;;;;;;6.03;5.53;;;;;;;;;;5120641;28;20483;-67
2022/12/01 03:40:16;;;;;;;5.85;5.35;;;;;;;;;;5121387;28;20207;-67
2022/12/01 03:42:45;;;;;;;6.20;5.60;;;;;;;;;;5120534;28;20477;-67
2022/12/01 03:45:28;;;;;;;5.78;5.28;;;;;;;;;;5120412;28;20570;-67
2022/12/01 03:47:55;;;;;;;5.90;5.40;;;;;;;;;;5120773;28;20202;-67
2022/12/01 03:50:27;;;;;;;5.90;5.40;;;;;;;;;;5121023;28;20202;-67
2022/12/01 03:52:57;;;;;;;5.63;5.13;;;;;;;;;;5121299;28;20540;-67
2022/12/01 03:55:27;;;;;;;5.45;4.95;;;;;;;;;;5120712;28;20287;-67
2022/12/01 03:57:57;;;;;;;6.20;5.70;;;;;;;;;;5120321;28;20199;-67
2022/12/01 04:00:25;;;;;;;6.05;5.55;;;;;;;;;;5120750;28;20203;-67
2022/12/01 04:02:55;;;;;;;5.60;5.10;;;;;;;;;;5120863;28;20275;-67
2022/12/01 04:05:23;;;;;;;5.45;5.00;;;;;;;;;;5120072;28;20187;-67
2022/12/01 04:07:52;;;;;;;5.53;5.05;;;;;;;;;;5119607;28;20207;-67
2022/12/01 04:10:19;;;;;;;5.60;5.00;;;;;;;;;;5120314;28;20213;-67
2022/12/01 04:12:46;;;;;;;5.25;4.85;;;;;;;;;;5121034;28;20595;-67
2022/12/01 04:15:14;;;;;;;5.32;4.82;;;;;;;;;;5119892;28;20202;-67
2022/12/01 04:17:43;;;;;;;5.18;4.72;;;;;;;;;;5120156;28;20651;-67
2022/12/01 04:20:12;;;;;;;5.50;5.10;;;;;;;;;;5120118;28;20203;-67
2022/12/01 04:22:40;;;;;;;5.47;4.97;;;;;;;;;;5125107;27;20512;-67
2022/12/01 04:25:09;;;;;;;5.68;5.18;;;;;;;;;;5134539;27;20222;-67
2022/12/01 04:27:38;;;;;;;5.38;4.93;;;;;;;;;;5120063;28;20207;-67
2022/12/01 04:30:06;;;;;;;4.90;4.50;;;;;;;;;;5119923;28;20203;-67
2022/12/01 04:32:38;;;;;;;5.18;4.72;;;;;;;;;;5120168;28;20203;-67
2022/12/01 04:35:06;;;;;;;5.28;4.88;;;;;;;;;;5125533;27;20573;-67
2022/12/01 04:37:33;;;;;;;5.20;4.80;;;;;;;;;;5140863;27;20257;-67
2022/12/01 04:40:01;;;;;;;5.32;4.90;;;;;;;;;;5140275;27;20266;-67
2022/12/01 04:42:31;;;;;;;5.53;5.07;;;;;;;;;;5140683;27;20309;-67
2022/12/01 04:44:59;;;;;;;5.60;5.10;;;;;;;;;;5135435;27;20268;-67
2022/12/01 04:47:27;;;;;;;5.28;4.88;;;;;;;;;;5119508;28;20213;-67
2022/12/01 04:49:55;;;;;;;4.68;4.28;;;;;;;;;;5118894;28;20214;-67
2022/12/01 04:52:22;;;;;;;4.93;4.53;;;;;;;;;;5119610;28;20301;-67
2022/12/01 04:54:51;;;;;;;5.00;4.60;;;;;;;;;;5122072;27;20217;-68
2022/12/01 04:57:18;;;;;;;5.45;5.00;;;;;;;;;;5140027;27;20545;-67
2022/12/01 04:59:48;;;;;;;4.97;4.57;;;;;;;;;;5140053;27;20202;-67
2022/12/01 05:02:16;;;;;;;4.95;4.55;;;;;;;;;;5139942;27;20213;-67
2022/12/01 05:04:46;;;;;;;4.90;4.50;;;;;;;;;;5137632;27;20266;-67
2022/12/01 05:07:14;;;;;;;5.53;5.03;;;;;;;;;;5118817;28;20203;-67
2022/12/01 05:09:42;;;;;;;5.40;4.90;;;;;;;;;;5118944;28;20203;-67
2022/12/01 05:12:09;;;;;;;5.30;4.80;;;;;;;;;;5118863;28;20206;-67
2022/12/01 05:14:36;;;;;;;5.28;4.88;;;;;;;;;;5119590;27;20228;-67
2022/12/01 05:17:05;;;;;;;5.38;4.88;;;;;;;;;;5138899;27;20230;-67
2022/12/01 05:22:17;;;;;;;4.95;4.55;;;;;;;;;;5139156;27;20189;-67
2022/12/01 05:24:44;;;;;;;5.38;4.88;;;;;;;;;;5137953;27;20194;-67
2022/12/01 05:27:12;;;;;;;5.60;5.10;;;;;;;;;;5118687;28;20199;-67
2022/12/01 05:29:39;;;;;;;5.47;5.07;;;;;;;;;;5118553;28;20233;-67
2022/12/01 05:32:08;;;;;;;4.90;4.50;;;;;;;;;;5118448;28;20210;-67
2022/12/01 05:34:36;;;;;;;5.30;4.85;;;;;;;;;;5118219;28;20213;-67
2022/12/01 05:37:04;;;;;;;5.88;5.38;;;;;;;;;;5118558;27;20223;-67
2022/12/01 05:39:31;;;;;;;5.15;4.75;;;;;;;;;;5118054;28;20199;-67
2022/12/01 05:41:59;;;;;;;5.30;4.80;;;;;;;;;;5117769;28;20543;-67
2022/12/01 05:44:26;;;;;;;5.22;4.82;;;;;;;;;;5116962;28;20209;-67
2022/12/01 05:46:54;;;;;;;5.85;5.35;;;;;;;;;;5117388;28;20217;-67
2022/12/01 05:49:23;;;;;;;5.30;4.85;;;;;;;;;;5117393;28;20281;-67
2022/12/01 05:51:50;;;;;;;5.50;5.00;;;;;;;;;;5116980;28;20244;-67
2022/12/01 05:54:17;;;;;;;5.72;5.22;;;;;;;;;;5116503;28;20210;-67
2022/12/01 05:56:45;;;;;;;5.55;5.05;;;;;;;;;;5129292;27;20218;-67
2022/12/01 05:59:12;;;;;;;5.55;5.05;;;;;;;;;;5137004;27;20205;-67
2022/12/01 06:01:40;;;;;;;5.90;5.40;;;;;;;;;;5136354;27;20198;-67
2022/12/01 06:04:08;;;;;;;5.60;5.10;;;;;;;;;;5135785;27;20685;-67
2022/12/01 06:06:36;;;;;;;5.88;5.28;;;;;;;;;;5123197;27;20195;-67
2022/12/01 06:09:04;;;;;;;5.72;5.22;;;;;;;;;;5116373;28;20203;-67
2022/12/01 06:11:31;;;;;;;5.85;5.35;;;;;;;;;;5116370;28;20294;-67
2022/12/01 06:13:59;;;;;;;5.80;5.30;;;;;;;;;;5115623;28;20551;-67
2022/12/01 06:16:26;;;;;;;6.22;5.68;;;;;;;;;;5121674;27;20530;-67
2022/12/01 06:18:54;;;;;;;6.57;6.03;;;;;;;;;;5115187;28;20206;-67
2022/12/01 06:21:21;;;;;;;6.20;5.60;;;;;;;;;;5116267;28;20233;-67
2022/12/01 06:23:53;;;;;;;6.05;5.55;;;;;;;;;;5123645;27;20222;-67
2022/12/01 06:26:23;;;;;;;6.63;6.03;;;;;;;;;;5133853;27;20573;-67
2022/12/01 06:28:51;;;;;;;6.53;5.93;;;;;;;;;;5131779;27;20202;-67
2022/12/01 06:31:18;;;;;;;6.43;5.82;;;;;;;;;;5135995;27;20199;-67
2022/12/01 06:33:46;;;;;;;6.68;6.07;;;;;;;;;;5135892;27;20198;-67
2022/12/01 06:36:13;;;;;;;6.60;6.00;;;;;;;;;;5134934;27;20225;-67
2022/12/01 06:38:41;;;;;;;6.38;5.78;;;;;;;;;;5136221;28;20198;-67
2022/12/01 06:41:09;;;;;;;6.63;6.03;;;;;;;;;;5135054;28;20198;-67
2022/12/01 06:43:37;;;;;;;7.10;6.40;;;;;;;;;;5136235;28;20213;-67
2022/12/01 06:46:05;;;;;;;6.57;5.97;;;;;;;;;;5135787;28;20492;-67
2022/12/01 06:48:33;;;;;;;6.63;6.03;;;;;;;;;;5135719;28;20205;-67
2022/12/01 06:51:00;;;;;;;6.63;6.00;;;;;;;;;;5135604;28;20202;-67
2022/12/01 06:53:28;;;;;;;6.90;6.20;;;;;;;;;;5136087;28;20213;-67
2022/12/01 06:55:57;;;;;;;7.25;6.55;;;;;;;;;;5135572;28;20209;-67
2022/12/01 06:58:26;;;;;;;7.32;6.63;;;;;;;;;;5134879;28;20205;-67
2022/12/01 07:00:53;;;;;;;7.50;6.80;;;;;;;;;;5136215;28;20202;-67
2022/12/01 07:03:20;;;;;;;6.93;6.25;;;;;;;;;;5135630;28;20202;-67
2022/12/01 07:05:57;;;;;;;7.18;6.53;;;;;;;;;;5135549;27;20222;-67
2022/12/01 07:08:24;;;;;;;7.28;6.57;;;;;;;;;;5134558;28;20198;-67
2022/12/01 07:10:57;;;;;;;7.53;6.82;;;;;;;;;;5135740;28;20194;-68
2022/12/01 07:13:26;;;;;;;7.50;6.80;;;;;;;;;;5136494;28;20202;-67
2022/12/01 07:15:53;;;;;;;8.50;7.70;;;;;;;;;;5136096;28;20214;-67
2022/12/01 07:18:21;;;;;;;7.40;6.60;;;;;;;;;;5135159;28;20229;-67
2022/12/01 07:20:48;;;;;;;7.90;7.10;;;;;;;;;;5135877;28;20202;-68
2022/12/01 07:23:15;;;;;;;8.48;7.43;;;;;;;;;;5136051;28;20236;-67
2022/12/01 07:25:43;;;;;;;8.65;7.80;;;;;;;;;;5136108;28;20214;-67
2022/12/01 07:28:10;;;;;;;8.43;7.60;;;;;;;;;;5135764;27;20199;-67
2022/12/01 07:30:39;;;;;;;8.23;7.43;;;;;;;;;;5136017;28;20212;-66
2022/12/01 07:33:06;;;;;;;8.05;7.22;;;;;;;;;;5135985;28;20240;-66
2022/12/01 07:35:33;;;;;;;8.45;7.65;;;;;;;;;;5135902;28;20483;-66
2022/12/01 07:38:01;;;;;;;7.90;7.10;;;;;;;;;;5134733;28;20726;-66
2022/12/01 07:40:28;;;;;;;8.95;8.02;;;;;;;;;;5135463;27;20206;-67
2022/12/01 07:42:55;;;;;;;8.70;7.80;;;;;;;;;;5135871;27;20214;-67
2022/12/01 07:45:23;;;;;;;8.43;7.50;;;;;;;;;;5138722;27;20208;-67
2022/12/01 07:47:54;;;;;;;9.25;8.35;;;;;;;;;;5139118;27;20218;-66
2022/12/01 07:50:21;;;;;;;8.52;7.68;;;;;;;;;;5138704;27;20245;-67
2022/12/01 07:52:50;;;;;;;8.52;7.72;;;;;;;;;;5139240;27;20203;-67
2022/12/01 07:55:17;;;;;;;8.55;7.70;;;;;;;;;;5139588;27;20202;-67
2022/12/01 07:57:46;;;;;;;9.00;8.10;;;;;;;;;;5138087;27;20223;-67
2022/12/01 08:00:14;;;;;;;8.95;8.07;;;;;;;;;;5139272;27;20206;-66
2022/12/01 08:02:41;;;;;;;8.77;7.88;;;;;;;;;;5138699;27;20194;-66
2022/12/01 08:05:10;;;;;;;9.05;8.15;;;;;;;;;;5139392;27;20212;-66
2022/12/01 08:07:38;;;;;;;9.15;7.85;;;;;;;;;;5138439;27;20198;-67
2022/12/01 08:10:06;;;;;;;8.95;8.15;;;;;;;;;;5138865;27;20202;-67
2022/12/01 08:12:33;;;;;;;9.30;8.43;;;;;;;;;;5138352;27;20198;-66
2022/12/01 08:15:02;;;;;;;9.25;8.35;;;;;;;;;;5138700;27;20202;-68
2022/12/01 08:17:29;;;;;;;9.30;8.40;;;;;;;;;;5137347;27;20222;-67
2022/12/01 08:19:57;;;;;;;9.10;8.18;;;;;;;;;;5138674;27;20202;-67
2022/12/01 08:22:25;;;;;;;9.48;8.57;;;;;;;;;;5134854;27;20209;-67
2022/12/01 08:24:53;;;;;;;9.13;8.32;;;;;;;;;;5118192;28;20598;-68
2022/12/01 08:27:20;;;;;;;9.43;8.55;;;;;;;;;;5109968;28;20194;-68
2022/12/01 08:29:48;;;;;;;8.82;8.00;;;;;;;;;;5117565;28;20203;-68
2022/12/01 08:32:15;;;;;;;9.05;8.18;;;;;;;;;;5108175;28;20534;-68
2022/12/01 08:34:43;;;;;;;9.40;8.40;;;;;;;;;;5096669;28;20215;-68
2022/12/01 08:37:10;;;;;;;9.05;8.15;;;;;;;;;;5102325;28;20214;-67
2022/12/01 08:39:39;;;;;;;8.65;7.78;;;;;;;;;;5117236;28;20202;-67
2022/12/01 08:42:06;;;;;;;9.68;8.70;;;;;;;;;;5116993;28;20199;-68
2022/12/01 08:44:34;;;;;;;10.20;9.20;;;;;;;;;;5117543;28;20293;-67
2022/12/01 08:47:01;;;;;;;9.85;8.85;;;;;;;;;;5116298;28;20195;-67
2022/12/01 08:49:28;;;;;;;9.60;8.70;;;;;;;;;;5116479;28;20489;-67
2022/12/01 08:51:56;;;;;;;8.93;8.13;;;;;;;;;;5115479;28;20591;-67
2022/12/01 08:54:23;;;;;;;9.15;8.25;;;;;;;;;;5116176;28;20264;-67
2022/12/01 08:56:52;;;;;;;9.45;8.55;;;;;;;;;;5112182;28;20214;-67
2022/12/01 08:59:19;;;;;;;9.40;8.50;;;;;;;;;;5107772;27;20207;-67
2022/12/01 09:01:53;;;;;;;9.10;8.20;;;;;;;;;;5110368;28;20260;-67
2022/12/01 09:04:21;;;;;;;10.13;8.13;;;;;;;;;;5116519;28;20207;-67
2022/12/01 09:06:49;;;;;;;9.30;7.90;;;;;;;;;;5112016;27;20214;-67
2022/12/01 09:09:17;;;;;;;9.40;8.50;;;;;;;;;;5115326;28;20213;-67
2022/12/01 09:11:45;;;;;;;8.90;8.00;;;;;;;;;;5106713;28;20207;-67
2022/12/01 09:14:15;;;;;;;9.93;8.68;;;;;;;;;;5116868;28;20203;-67
2022/12/01 09:16:43;;;;;;;8.98;8.18;;;;;;;;;;5117036;28;20211;-66
2022/12/01 09:19:11;;;;;;;9.05;7.93;;;;;;;;;;5108845;28;20218;-66
2022/12/01 09:21:38;;;;;;;9.45;8.55;;;;;;;;;;5116325;28;20202;-67
2022/12/01 09:24:07;;;;;;;9.10;8.20;;;;;;;;;;5116454;27;20633;-67
2022/12/01 09:26:34;;;;;;;9.13;8.23;;;;;;;;;;5116290;28;20594;-67
2022/12/01 09:29:03;;;;;;;8.95;8.05;;;;;;;;;;5116278;28;20486;-66
2022/12/01 09:31:32;;;;;;;12.85;11.68;;;;;;;;;;5121921;27;20194;-66
2022/12/01 09:34:00;;;;;;;17.65;16.08;;;;;;;;;;5095900;28;20200;-66
2022/12/01 09:36:28;;;;;;;20.83;19.13;;;;;;;;;;5095776;28;20210;-67
2022/12/01 09:38:56;;;;;;;22.10;20.30;;;;;;;;;;5114872;28;20215;-67
2022/12/01 09:41:26;;;;;;;22.05;20.25;;;;;;;;;;5115964;28;20222;-67
2022/12/01 09:43:57;;;;;;;21.98;20.17;;;;;;;;;;5117093;28;20244;-67
2022/12/01 09:46:26;;;;;;;21.50;19.73;;;;;;;;;;5116421;28;20194;-67
2022/12/01 09:48:56;;;;;;;20.70;19.00;;;;;;;;;;5115398;28;20210;-67
2022/12/01 09:51:25;;;;;;;20.05;18.27;;;;;;;;;;5119111;27;20198;-67
2022/12/01 09:53:53;;;;;;;20.77;19.02;;;;;;;;;;5118922;27;20590;-67
2022/12/01 09:56:22;;;;;;;19.50;17.73;;;;;;;;;;5136361;27;20505;-67
2022/12/01 09:58:51;;;;;;;18.90;17.40;;;;;;;;;;5116414;28;20218;-67
2022/12/01 10:01:19;;;;;;;19.05;17.48;;;;;;;;;;5107537;28;20203;-67
2022/12/01 10:03:48;;;;;;;17.55;16.15;;;;;;;;;;5115683;28;20206;-67
2022/12/01 10:06:30;;;;;;;16.90;15.60;;;;;;;;;;5114424;28;20272;-68
2022/12/01 10:09:01;;;;;;;17.52;16.05;;;;;;;;;;5115029;28;20612;-67
2022/12/01 10:11:30;;;;;;;16.70;15.30;;;;;;;;;;5115693;28;20476;-67
2022/12/01 10:13:58;;;;;;;16.42;15.13;;;;;;;;;;5115688;28;20195;-67
2022/12/01 10:16:29;;;;;;;19.58;17.88;;;;;;;;;;5115909;28;20199;-67
2022/12/01 10:18:59;;;;;;;28.67;26.30;;;;;;;;;;5115534;28;20522;-67
2022/12/01 10:21:35;;;;;;;25.63;23.55;;;;;;;;;;5115569;28;20206;-67
2022/12/01 10:24:17;;;;;;;23.80;21.88;;;;;;;;;;5131553;27;20237;-67
2022/12/01 10:26:50;;;;;;;22.92;21.02;;;;;;;;;;5136114;27;20207;-67
2022/12/01 10:29:23;;;;;;;22.95;21.02;;;;;;;;;;5095121;28;20206;-67
2022/12/01 10:31:54;;;;;;;21.30;19.60;;;;;;;;;;5095082;28;20583;-68
2022/12/01 10:34:23;;;;;;;20.40;18.67;;;;;;;;;;5094368;28;20206;-67
2022/12/01 10:36:52;;;;;;;20.65;18.75;;;;;;;;;;5096115;28;20211;-67
2022/12/01 10:39:20;;;;;;;19.95;18.25;;;;;;;;;;5135991;28;20900;-67
2022/12/01 10:41:49;;;;;;;19.27;17.67;;;;;;;;;;5129225;28;20213;-67
2022/12/01 10:44:18;;;;;;;19.00;17.40;;;;;;;;;;5114512;28;20289;-68
2022/12/01 10:46:46;;;;;;;17.85;16.25;;;;;;;;;;5114939;28;20202;-67
2022/12/01 10:49:14;;;;;;;17.08;15.68;;;;;;;;;;5134241;28;20212;-67
2022/12/01 10:51:49;;;;;;;21.77;19.67;;;;;;;;;;5134779;28;20217;-67
2022/12/01 10:54:18;;;;;;;21.80;19.90;;;;;;;;;;5135557;28;20585;-67
2022/12/01 10:56:48;;;;;;;19.33;17.67;;;;;;;;;;5135292;28;20194;-67
2022/12/01 10:59:26;;;;;;;20.98;19.17;;;;;;;;;;5093684;28;20266;-67
2022/12/01 11:01:54;;;;;;;21.15;19.30;;;;;;;;;;5094228;28;20477;-66
2022/12/01 11:04:25;;;;;;;20.95;19.23;;;;;;;;;;5092465;28;20199;-67
2022/12/01 11:06:53;;;;;;;21.13;19.27;;;;;;;;;;5094012;28;20207;-67
2022/12/01 11:09:22;;;;;;;21.48;19.50;;;;;;;;;;5133696;28;20198;-67
2022/12/01 11:11:55;;;;;;;20.05;18.35;;;;;;;;;;5133822;28;20194;-67
2022/12/01 11:14:24;;;;;;;20.45;18.70;;;;;;;;;;5134609;28;20212;-67
2022/12/01 11:16:52;;;;;;;19.73;18.08;;;;;;;;;;5134647;27;20199;-67
2022/12/01 11:19:22;;;;;;;19.17;17.58;;;;;;;;;;5137612;27;20225;-67
2022/12/01 11:21:50;;;;;;;19.52;17.92;;;;;;;;;;5138525;27;20198;-67
2022/12/01 11:24:32;;;;;;;18.60;17.10;;;;;;;;;;5138885;27;20238;-67
2022/12/01 11:27:01;;;;;;;19.05;17.42;;;;;;;;;;5121276;27;20198;-67
2022/12/01 11:29:32;;;;;;;18.00;16.50;;;;;;;;;;5096397;28;20208;-67
2022/12/01 11:32:00;;;;;;;19.00;17.30;;;;;;;;;;5096850;28;20200;-67
2022/12/01 11:34:29;;;;;;;17.42;15.93;;;;;;;;;;5097239;28;20210;-66
2022/12/01 11:36:57;;;;;;;16.98;15.57;;;;;;;;;;5097293;28;20302;-66
2022/12/01 11:39:27;;;;;;;18.17;16.70;;;;;;;;;;5137115;27;20329;-68
2022/12/01 11:41:56;;;;;;;16.60;15.20;;;;;;;;;;5137462;27;20551;-67
2022/12/01 11:44:25;;;;;;;16.73;15.32;;;;;;;;;;5138209;27;20210;-67
2022/12/01 11:46:52;;;;;;;15.75;14.45;;;;;;;;;;5137928;27;20578;-67
2022/12/01 11:49:21;;;;;;;15.85;14.55;;;;;;;;;;5118452;27;20499;-67
2022/12/01 11:51:49;;;;;;;15.73;14.32;;;;;;;;;;5116963;28;20206;-67
2022/12/01 11:54:18;;;;;;;16.25;14.88;;;;;;;;;;5117150;28;20206;-67
2022/12/01 11:56:46;;;;;;;15.40;14.10;;;;;;;;;;5116606;28;20218;-67
2022/12/01 11:59:15;;;;;;;14.77;13.57;;;;;;;;;;5134834;27;20223;-67
2022/12/01 12:02:00;;;;;;;15.07;13.77;;;;;;;;;;5137735;27;20735;-67
2022/12/01 12:04:35;;;;;;;14.40;13.18;;;;;;;;;;5138215;27;20305;-66
2022/12/01 12:07:06;;;;;;;13.50;12.40;;;;;;;;;;5137590;27;20337;-66
2022/12/01 12:09:44;;;;;;;13.48;12.38;;;;;;;;;;5096406;28;20200;-67
2022/12/01 12:12:15;;;;;;;13.63;12.52;;;;;;;;;;5096144;28;20207;-67
2022/12/01 12:14:47;;;;;;;13.15;12.05;;;;;;;;;;5095902;28;20276;-67
2022/12/01 12:17:27;;;;;;;12.18;11.18;;;;;;;;;;5097785;27;20199;-67
2022/12/01 12:20:15;;;;;;;12.73;11.63;;;;;;;;;;5116934;28;20267;-66
2022/12/01 12:22:51;;;;;;;12.75;11.65;;;;;;;;;;5118218;28;20240;-66
2022/12/01 12:25:25;;;;;;;12.50;11.40;;;;;;;;;;5115434;28;20213;-67
2022/12/01 12:27:58;;;;;;;12.60;11.52;;;;;;;;;;5115449;28;20191;-67
2022/12/01 12:30:28;;;;;;;12.13;11.05;;;;;;;;;;5116139;28;20199;-66
2022/12/01 12:33:23;;;;;;;11.70;10.73;;;;;;;;;;5126024;27;20212;-67
2022/12/01 12:35:55;;;;;;;11.18;10.27;;;;;;;;;;5088655;27;20267;-66
2022/12/01 12:38:31;;;;;;;11.38;10.38;;;;;;;;;;5125227;27;20250;-66
2022/12/01 12:41:06;;;;;;;10.95;9.95;;;;;;;;;;5116670;28;20289;-67
2022/12/01 12:43:38;;;;;;;11.43;10.32;;;;;;;;;;5116280;28;20285;-67
2022/12/01 12:46:07;;;;;;;11.13;10.13;;;;;;;;;;5122226;27;20194;-67
2022/12/01 12:48:45;;;;;;;10.98;10.07;;;;;;;;;;5136188;27;20563;-67
2022/12/01 12:51:17;;;;;;;11.15;10.25;;;;;;;;;;5136827;27;20745;-66
2022/12/01 12:53:47;;;;;;;11.07;10.10;;;;;;;;;;5136465;27;20283;-66
2022/12/01 12:56:16;;;;;;;10.73;9.73;;;;;;;;;;5125369;27;20646;-67
2022/12/01 12:58:45;;;;;;;10.35;9.48;;;;;;;;;;5115063;28;20233;-67
2022/12/01 13:01:14;;;;;;;10.80;9.90;;;;;;;;;;5115843;28;20199;-67
2022/12/01 13:03:46;;;;;;;10.73;9.80;;;;;;;;;;5115200;28;20581;-67
2022/12/01 13:06:16;;;;;;;10.70;9.70;;;;;;;;;;5115908;28;20226;-67
2022/12/01 13:08:46;;;;;;;10.68;9.77;;;;;;;;;;5116932;28;20207;-66
2022/12/01 13:11:15;;;;;;;9.38;8.57;;;;;;;;;;5116751;27;20230;-68
2022/12/01 13:13:47;;;;;;;10.25;9.35;;;;;;;;;;5136678;27;20567;-67
2022/12/01 13:16:17;;;;;;;10.40;9.50;;;;;;;;;;5125275;27;20206;-66
2022/12/01 13:18:46;;;;;;;10.00;9.10;;;;;;;;;;5115331;28;20291;-66
2022/12/01 13:21:16;;;;;;;10.02;9.13;;;;;;;;;;5115915;28;20214;-67
2022/12/01 13:23:44;;;;;;;10.10;9.20;;;;;;;;;;5110902;28;20235;-66
2022/12/01 13:26:12;;;;;;;9.70;8.80;;;;;;;;;;5114505;28;20205;-67
2022/12/01 13:28:42;;;;;;;9.65;8.85;;;;;;;;;;5114890;28;20205;-67
2022/12/01 13:31:11;;;;;;;10.35;9.35;;;;;;;;;;5114657;28;20199;-66
2022/12/01 13:33:41;;;;;;;9.52;8.63;;;;;;;;;;5115710;28;20207;-68
2022/12/01 13:36:09;;;;;;;9.68;8.80;;;;;;;;;;5114871;28;20691;-66
2022/12/01 13:38:38;;;;;;;10.20;9.23;;;;;;;;;;5114596;28;20218;-68
2022/12/01 13:41:13;;;;;;;9.32;8.52;;;;;;;;;;5114260;28;20221;-67
2022/12/01 13:43:49;;;;;;;9.55;8.68;;;;;;;;;;5115564;28;20202;-67
2022/12/01 13:46:21;;;;;;;9.20;8.40;;;;;;;;;;5114868;28;20194;-67
2022/12/01 13:48:52;;;;;;;9.85;8.95;;;;;;;;;;5115109;28;20199;-66
2022/12/01 13:51:20;;;;;;;9.32;8.52;;;;;;;;;;5115382;28;20194;-66
2022/12/01 13:53:57;;;;;;;9.05;8.20;;;;;;;;;;5114870;28;20210;-66
2022/12/01 13:56:36;;;;;;;9.27;8.45;;;;;;;;;;5114320;28;20215;-66
2022/12/01 13:59:04;;;;;;;9.40;8.52;;;;;;;;;;5116371;28;20222;-66
2022/12/01 14:01:49;;;;;;;8.70;7.95;;;;;;;;;;5115820;28;20744;-67
2022/12/01 14:04:38;;;;;;;9.18;8.35;;;;;;;;;;5115761;28;20207;-66
2022/12/01 14:07:16;;;;;;;9.55;8.65;;;;;;;;;;5106550;28;20195;-66
2022/12/01 14:09:45;;;;;;;8.95;8.15;;;;;;;;;;5114096;28;20204;-66
2022/12/01 14:12:16;;;;;;;9.50;8.60;;;;;;;;;;5114744;28;20210;-66
2022/12/01 14:14:46;;;;;;;9.48;8.57;;;;;;;;;;5114864;28;20203;-67
2022/12/01 14:17:24;;;;;;;9.20;8.18;;;;;;;;;;5113682;28;20191;-68
2022/12/01 14:19:53;;;;;;;8.60;7.80;;;;;;;;;;5115603;28;20222;-67
2022/12/01 14:22:35;;;;;;;8.10;7.40;;;;;;;;;;5113972;28;20199;-67
2022/12/01 14:25:06;;;;;;;8.85;8.05;;;;;;;;;;5132654;27;20228;-68
2022/12/01 14:27:34;;;;;;;8.95;8.10;;;;;;;;;;5135462;27;20210;-67
2022/12/01 14:30:16;;;;;;;9.10;8.25;;;;;;;;;;5135143;27;20199;-67
2022/12/01 14:32:44;;;;;;;9.00;8.10;;;;;;;;;;5133941;27;20605;-67
2022/12/01 14:35:14;;;;;;;8.80;7.97;;;;;;;;;;5134067;27;20204;-66
2022/12/01 14:37:44;;;;;;;24.70;20.40;;;;;;;;;;5134301;27;20601;-67
2022/12/01 14:40:18;;;;;;;18.23;15.18;;;;;;;;;;5123430;27;20680;-66
2022/12/01 14:45:36;;;;;;;19.35;15.98;;;;;;;;;;5114187;28;20645;-68
2022/12/01 14:48:04;;;;;;;16.42;14.68;;;;;;;;;;5133255;28;20644;-66
2022/12/01 14:50:37;;;;;;;18.35;16.05;;;;;;;;;;5133598;27;20510;-66
2022/12/01 14:53:08;;;;;;;17.35;14.95;;;;;;;;;;5137034;27;20202;-67
2022/12/01 14:55:39;;;;;;;18.40;15.05;;;;;;;;;;5137908;27;20725;-67
2022/12/01 14:58:08;;;;;;;16.90;15.10;;;;;;;;;;5138784;27;20209;-67
2022/12/01 15:00:37;;;;;;;16.98;14.60;;;;;;;;;;5138933;27;20218;-67